sensor_id;sensor_type;location;lat;lon;timestamp;P1;durP1;ratioP1;P2;durP2;ratioP2
62523;SDS011;53689;56.878;60.672;2022-12-18T00:01:47;10.20;;;7.65;;
62523;SDS011;53689;56.878;60.672;2022-12-18T00:04:16;13.80;;;8.43;;
62523;SDS011;53689;56.878;60.672;2022-12-18T00:06:47;12.93;;;8.23;;
62523;SDS011;53689;56.878;60.672;2022-12-18T00:09:15;10.00;;;8.25;;
62523;SDS011;53689;56.878;60.672;2022-12-18T00:11:42;10.55;;;7.78;;
62523;SDS011;53689;56.878;60.672;2022-12-18T00:14:10;11.35;;;8.25;;
62523;SDS011;53689;56.878;60.672;2022-12-18T00:16:39;10.02;;;7.38;;
62523;SDS011;53689;56.878;60.672;2022-12-18T00:19:11;11.35;;;8.18;;
62523;SDS011;53689;56.878;60.672;2022-12-18T00:21:41;11.70;;;7.70;;
62523;SDS011;53689;56.878;60.672;2022-12-18T00:24:10;10.88;;;7.55;;
62523;SDS011;53689;56.878;60.672;2022-12-18T00:26:38;10.27;;;7.63;;
62523;SDS011;53689;56.878;60.672;2022-12-18T00:29:07;10.07;;;7.63;;
62523;SDS011;53689;56.878;60.672;2022-12-18T00:31:38;9.70;;;7.75;;
62523;SDS011;53689;56.878;60.672;2022-12-18T00:34:06;9.55;;;7.65;;
62523;SDS011;53689;56.878;60.672;2022-12-18T00:36:40;12.25;;;7.97;;
62523;SDS011;53689;56.878;60.672;2022-12-18T00:39:09;11.68;;;8.00;;
62523;SDS011;53689;56.878;60.672;2022-12-18T00:41:37;10.75;;;7.43;;
62523;SDS011;53689;56.878;60.672;2022-12-18T00:44:05;10.00;;;7.32;;
62523;SDS011;53689;56.878;60.672;2022-12-18T00:46:34;12.38;;;8.27;;
62523;SDS011;53689;56.878;60.672;2022-12-18T00:49:01;11.40;;;7.97;;
62523;SDS011;53689;56.878;60.672;2022-12-18T00:51:29;10.30;;;7.32;;
62523;SDS011;53689;56.878;60.672;2022-12-18T00:53:58;10.60;;;7.63;;
62523;SDS011;53689;56.878;60.672;2022-12-18T00:56:25;10.57;;;7.40;;
62523;SDS011;53689;56.878;60.672;2022-12-18T00:58:53;11.35;;;7.35;;
62523;SDS011;53689;56.878;60.672;2022-12-18T01:01:21;9.63;;;7.05;;
62523;SDS011;53689;56.878;60.672;2022-12-18T01:03:49;11.00;;;7.53;;
62523;SDS011;53689;56.878;60.672;2022-12-18T01:06:16;11.57;;;8.05;;
62523;SDS011;53689;56.878;60.672;2022-12-18T01:08:44;11.75;;;7.20;;
62523;SDS011;53689;56.878;60.672;2022-12-18T01:11:14;9.98;;;7.50;;
62523;SDS011;53689;56.878;60.672;2022-12-18T01:13:47;13.25;;;8.13;;
62523;SDS011;53689;56.878;60.672;2022-12-18T01:16:15;10.85;;;8.10;;
62523;SDS011;53689;56.878;60.672;2022-12-18T01:18:43;11.23;;;7.80;;
62523;SDS011;53689;56.878;60.672;2022-12-18T01:21:13;11.07;;;7.47;;
62523;SDS011;53689;56.878;60.672;2022-12-18T01:23:44;9.98;;;7.68;;
62523;SDS011;53689;56.878;60.672;2022-12-18T01:26:14;11.15;;;7.95;;
62523;SDS011;53689;56.878;60.672;2022-12-18T01:28:43;9.77;;;7.43;;
62523;SDS011;53689;56.878;60.672;2022-12-18T01:31:11;10.63;;;7.55;;
62523;SDS011;53689;56.878;60.672;2022-12-18T01:33:40;12.63;;;7.68;;
62523;SDS011;53689;56.878;60.672;2022-12-18T01:36:08;10.88;;;7.82;;
62523;SDS011;53689;56.878;60.672;2022-12-18T01:38:42;11.15;;;7.70;;
62523;SDS011;53689;56.878;60.672;2022-12-18T01:41:10;12.13;;;8.40;;
62523;SDS011;53689;56.878;60.672;2022-12-18T01:43:46;10.70;;;7.75;;
62523;SDS011;53689;56.878;60.672;2022-12-18T01:46:16;12.32;;;8.65;;
62523;SDS011;53689;56.878;60.672;2022-12-18T01:48:46;11.85;;;8.00;;
62523;SDS011;53689;56.878;60.672;2022-12-18T01:51:15;12.05;;;7.30;;
62523;SDS011;53689;56.878;60.672;2022-12-18T01:53:43;11.48;;;7.70;;
62523;SDS011;53689;56.878;60.672;2022-12-18T01:56:13;11.48;;;7.75;;
62523;SDS011;53689;56.878;60.672;2022-12-18T01:58:46;11.80;;;7.55;;
62523;SDS011;53689;56.878;60.672;2022-12-18T02:01:19;10.85;;;7.50;;
62523;SDS011;53689;56.878;60.672;2022-12-18T02:03:48;12.85;;;8.93;;
62523;SDS011;53689;56.878;60.672;2022-12-18T02:06:17;11.25;;;8.00;;
62523;SDS011;53689;56.878;60.672;2022-12-18T02:08:57;9.82;;;7.65;;
62523;SDS011;53689;56.878;60.672;2022-12-18T02:11:39;11.60;;;7.82;;
62523;SDS011;53689;56.878;60.672;2022-12-18T02:14:17;13.20;;;8.50;;
62523;SDS011;53689;56.878;60.672;2022-12-18T02:16:55;11.73;;;7.88;;
62523;SDS011;53689;56.878;60.672;2022-12-18T02:19:34;10.68;;;8.57;;
62523;SDS011;53689;56.878;60.672;2022-12-18T02:22:19;13.25;;;8.82;;
62523;SDS011;53689;56.878;60.672;2022-12-18T02:24:56;11.63;;;7.75;;
62523;SDS011;53689;56.878;60.672;2022-12-18T02:27:33;11.57;;;8.25;;
62523;SDS011;53689;56.878;60.672;2022-12-18T02:30:04;13.05;;;9.15;;
62523;SDS011;53689;56.878;60.672;2022-12-18T02:32:33;9.77;;;8.20;;
62523;SDS011;53689;56.878;60.672;2022-12-18T02:35:05;10.60;;;8.02;;
62523;SDS011;53689;56.878;60.672;2022-12-18T02:37:36;11.98;;;8.43;;
62523;SDS011;53689;56.878;60.672;2022-12-18T02:40:08;11.80;;;8.02;;
62523;SDS011;53689;56.878;60.672;2022-12-18T02:42:39;11.38;;;8.70;;
62523;SDS011;53689;56.878;60.672;2022-12-18T02:45:09;13.52;;;8.68;;
62523;SDS011;53689;56.878;60.672;2022-12-18T02:47:38;11.82;;;8.32;;
62523;SDS011;53689;56.878;60.672;2022-12-18T02:50:13;11.23;;;7.82;;
62523;SDS011;53689;56.878;60.672;2022-12-18T02:52:49;14.35;;;9.13;;
62523;SDS011;53689;56.878;60.672;2022-12-18T02:55:29;13.45;;;9.07;;
62523;SDS011;53689;56.878;60.672;2022-12-18T02:58:14;12.98;;;8.50;;
62523;SDS011;53689;56.878;60.672;2022-12-18T03:00:50;11.73;;;8.98;;
62523;SDS011;53689;56.878;60.672;2022-12-18T03:03:24;13.85;;;9.82;;
62523;SDS011;53689;56.878;60.672;2022-12-18T03:05:56;11.98;;;8.50;;
62523;SDS011;53689;56.878;60.672;2022-12-18T03:08:28;13.30;;;8.68;;
62523;SDS011;53689;56.878;60.672;2022-12-18T03:10:59;12.23;;;8.02;;
62523;SDS011;53689;56.878;60.672;2022-12-18T03:13:34;10.57;;;8.25;;
62523;SDS011;53689;56.878;60.672;2022-12-18T03:16:05;11.57;;;8.70;;
62523;SDS011;53689;56.878;60.672;2022-12-18T03:18:38;13.13;;;8.60;;
62523;SDS011;53689;56.878;60.672;2022-12-18T03:21:10;12.85;;;8.88;;
62523;SDS011;53689;56.878;60.672;2022-12-18T03:23:44;14.50;;;9.45;;
62523;SDS011;53689;56.878;60.672;2022-12-18T03:26:17;13.88;;;8.80;;
62523;SDS011;53689;56.878;60.672;2022-12-18T03:28:54;11.30;;;8.32;;
62523;SDS011;53689;56.878;60.672;2022-12-18T03:31:27;11.48;;;8.57;;
62523;SDS011;53689;56.878;60.672;2022-12-18T03:33:58;10.55;;;7.70;;
62523;SDS011;53689;56.878;60.672;2022-12-18T03:36:38;12.18;;;8.10;;
62523;SDS011;53689;56.878;60.672;2022-12-18T03:39:07;10.77;;;8.07;;
62523;SDS011;53689;56.878;60.672;2022-12-18T03:41:38;13.70;;;9.05;;
62523;SDS011;53689;56.878;60.672;2022-12-18T03:44:23;18.65;;;9.73;;
62523;SDS011;53689;56.878;60.672;2022-12-18T03:46:58;14.38;;;8.20;;
62523;SDS011;53689;56.878;60.672;2022-12-18T03:49:35;12.88;;;8.45;;
62523;SDS011;53689;56.878;60.672;2022-12-18T03:52:08;10.88;;;7.85;;
62523;SDS011;53689;56.878;60.672;2022-12-18T03:54:40;12.55;;;8.02;;
62523;SDS011;53689;56.878;60.672;2022-12-18T03:57:14;13.55;;;7.95;;
62523;SDS011;53689;56.878;60.672;2022-12-18T03:59:49;12.93;;;8.20;;
62523;SDS011;53689;56.878;60.672;2022-12-18T04:02:23;12.70;;;8.70;;
62523;SDS011;53689;56.878;60.672;2022-12-18T04:04:52;11.75;;;8.13;;
62523;SDS011;53689;56.878;60.672;2022-12-18T04:07:23;11.35;;;8.07;;
62523;SDS011;53689;56.878;60.672;2022-12-18T04:09:51;11.25;;;7.88;;
62523;SDS011;53689;56.878;60.672;2022-12-18T04:12:24;12.30;;;8.45;;
62523;SDS011;53689;56.878;60.672;2022-12-18T04:14:53;11.02;;;8.27;;
62523;SDS011;53689;56.878;60.672;2022-12-18T04:19:49;12.50;;;8.32;;
62523;SDS011;53689;56.878;60.672;2022-12-18T04:22:17;12.70;;;8.75;;
62523;SDS011;53689;56.878;60.672;2022-12-18T04:24:50;12.80;;;7.93;;
62523;SDS011;53689;56.878;60.672;2022-12-18T04:27:28;11.98;;;8.32;;
62523;SDS011;53689;56.878;60.672;2022-12-18T04:29:59;11.75;;;8.50;;
62523;SDS011;53689;56.878;60.672;2022-12-18T04:32:29;11.90;;;8.38;;
62523;SDS011;53689;56.878;60.672;2022-12-18T04:34:59;13.32;;;8.60;;
62523;SDS011;53689;56.878;60.672;2022-12-18T04:37:26;12.15;;;8.90;;
62523;SDS011;53689;56.878;60.672;2022-12-18T04:39:54;12.25;;;9.02;;
62523;SDS011;53689;56.878;60.672;2022-12-18T04:42:30;12.57;;;8.18;;
62523;SDS011;53689;56.878;60.672;2022-12-18T04:44:59;13.20;;;8.70;;
62523;SDS011;53689;56.878;60.672;2022-12-18T04:47:27;11.75;;;8.93;;
62523;SDS011;53689;56.878;60.672;2022-12-18T04:49:54;14.25;;;9.07;;
62523;SDS011;53689;56.878;60.672;2022-12-18T04:52:22;14.15;;;8.40;;
62523;SDS011;53689;56.878;60.672;2022-12-18T04:54:50;13.10;;;9.50;;
62523;SDS011;53689;56.878;60.672;2022-12-18T04:57:17;12.18;;;9.43;;
62523;SDS011;53689;56.878;60.672;2022-12-18T04:59:45;14.50;;;10.20;;
62523;SDS011;53689;56.878;60.672;2022-12-18T05:02:14;15.70;;;9.60;;
62523;SDS011;53689;56.878;60.672;2022-12-18T05:04:42;14.38;;;9.15;;
62523;SDS011;53689;56.878;60.672;2022-12-18T05:07:09;16.15;;;9.93;;
62523;SDS011;53689;56.878;60.672;2022-12-18T05:09:36;13.60;;;10.18;;
62523;SDS011;53689;56.878;60.672;2022-12-18T05:12:04;13.88;;;9.07;;
62523;SDS011;53689;56.878;60.672;2022-12-18T05:14:32;15.73;;;10.30;;
62523;SDS011;53689;56.878;60.672;2022-12-18T05:16:59;15.23;;;9.23;;
62523;SDS011;53689;56.878;60.672;2022-12-18T05:19:28;15.63;;;9.82;;
62523;SDS011;53689;56.878;60.672;2022-12-18T05:21:56;15.52;;;9.30;;
62523;SDS011;53689;56.878;60.672;2022-12-18T05:24:23;17.05;;;9.18;;
62523;SDS011;53689;56.878;60.672;2022-12-18T05:26:51;12.18;;;8.57;;
62523;SDS011;53689;56.878;60.672;2022-12-18T05:29:19;14.15;;;8.80;;
62523;SDS011;53689;56.878;60.672;2022-12-18T05:31:46;14.82;;;9.77;;
62523;SDS011;53689;56.878;60.672;2022-12-18T05:34:14;14.32;;;9.18;;
62523;SDS011;53689;56.878;60.672;2022-12-18T05:36:43;13.43;;;9.43;;
62523;SDS011;53689;56.878;60.672;2022-12-18T05:39:10;15.35;;;9.60;;
62523;SDS011;53689;56.878;60.672;2022-12-18T05:41:39;18.25;;;10.15;;
62523;SDS011;53689;56.878;60.672;2022-12-18T05:44:07;15.82;;;9.57;;
62523;SDS011;53689;56.878;60.672;2022-12-18T05:46:35;14.75;;;10.10;;
62523;SDS011;53689;56.878;60.672;2022-12-18T05:49:04;18.73;;;10.70;;
62523;SDS011;53689;56.878;60.672;2022-12-18T05:51:32;13.93;;;8.95;;
62523;SDS011;53689;56.878;60.672;2022-12-18T05:54:01;14.88;;;9.75;;
62523;SDS011;53689;56.878;60.672;2022-12-18T05:56:32;14.73;;;8.73;;
62523;SDS011;53689;56.878;60.672;2022-12-18T05:58:59;16.95;;;9.93;;
62523;SDS011;53689;56.878;60.672;2022-12-18T06:01:28;16.05;;;9.90;;
62523;SDS011;53689;56.878;60.672;2022-12-18T06:03:57;17.75;;;9.20;;
62523;SDS011;53689;56.878;60.672;2022-12-18T06:06:25;12.60;;;8.90;;
62523;SDS011;53689;56.878;60.672;2022-12-18T06:08:55;14.90;;;9.18;;
62523;SDS011;53689;56.878;60.672;2022-12-18T06:11:25;13.60;;;8.95;;
62523;SDS011;53689;56.878;60.672;2022-12-18T06:13:54;16.30;;;9.52;;
62523;SDS011;53689;56.878;60.672;2022-12-18T06:16:25;13.30;;;9.15;;
62523;SDS011;53689;56.878;60.672;2022-12-18T06:18:53;17.33;;;10.02;;
62523;SDS011;53689;56.878;60.672;2022-12-18T06:21:22;16.08;;;9.35;;
62523;SDS011;53689;56.878;60.672;2022-12-18T06:23:50;17.23;;;10.00;;
62523;SDS011;53689;56.878;60.672;2022-12-18T06:26:18;14.55;;;8.68;;
62523;SDS011;53689;56.878;60.672;2022-12-18T06:28:55;14.93;;;8.90;;
62523;SDS011;53689;56.878;60.672;2022-12-18T06:31:23;14.25;;;8.43;;
62523;SDS011;53689;56.878;60.672;2022-12-18T06:33:51;16.85;;;9.23;;
62523;SDS011;53689;56.878;60.672;2022-12-18T06:36:19;16.30;;;9.23;;
62523;SDS011;53689;56.878;60.672;2022-12-18T06:38:46;13.80;;;8.50;;
62523;SDS011;53689;56.878;60.672;2022-12-18T06:41:15;18.02;;;9.13;;
62523;SDS011;53689;56.878;60.672;2022-12-18T06:43:45;17.70;;;10.18;;
62523;SDS011;53689;56.878;60.672;2022-12-18T06:46:14;15.82;;;9.60;;
62523;SDS011;53689;56.878;60.672;2022-12-18T06:48:42;17.55;;;10.27;;
62523;SDS011;53689;56.878;60.672;2022-12-18T06:51:15;18.98;;;9.80;;
62523;SDS011;53689;56.878;60.672;2022-12-18T06:53:44;18.13;;;9.70;;
62523;SDS011;53689;56.878;60.672;2022-12-18T06:56:12;17.20;;;9.48;;
62523;SDS011;53689;56.878;60.672;2022-12-18T06:58:41;17.77;;;9.90;;
62523;SDS011;53689;56.878;60.672;2022-12-18T07:01:09;15.65;;;9.55;;
62523;SDS011;53689;56.878;60.672;2022-12-18T07:03:40;17.45;;;9.88;;
62523;SDS011;53689;56.878;60.672;2022-12-18T07:06:13;13.63;;;8.95;;
62523;SDS011;53689;56.878;60.672;2022-12-18T07:08:42;16.88;;;9.82;;
62523;SDS011;53689;56.878;60.672;2022-12-18T07:11:10;22.10;;;10.38;;
62523;SDS011;53689;56.878;60.672;2022-12-18T07:13:39;18.13;;;9.48;;
62523;SDS011;53689;56.878;60.672;2022-12-18T07:16:08;17.67;;;10.02;;
62523;SDS011;53689;56.878;60.672;2022-12-18T07:18:49;18.92;;;9.98;;
62523;SDS011;53689;56.878;60.672;2022-12-18T07:21:18;15.55;;;9.80;;
62523;SDS011;53689;56.878;60.672;2022-12-18T07:23:46;19.67;;;10.50;;
62523;SDS011;53689;56.878;60.672;2022-12-18T07:26:15;15.52;;;9.85;;
62523;SDS011;53689;56.878;60.672;2022-12-18T07:31:12;18.15;;;10.68;;
62523;SDS011;53689;56.878;60.672;2022-12-18T07:33:40;17.65;;;10.65;;
62523;SDS011;53689;56.878;60.672;2022-12-18T07:36:10;15.38;;;9.20;;
62523;SDS011;53689;56.878;60.672;2022-12-18T07:38:38;12.65;;;8.98;;
62523;SDS011;53689;56.878;60.672;2022-12-18T07:41:07;17.42;;;9.25;;
62523;SDS011;53689;56.878;60.672;2022-12-18T07:43:37;15.10;;;9.38;;
62523;SDS011;53689;56.878;60.672;2022-12-18T07:46:08;16.38;;;9.70;;
62523;SDS011;53689;56.878;60.672;2022-12-18T07:48:40;17.20;;;10.38;;
62523;SDS011;53689;56.878;60.672;2022-12-18T07:51:11;16.75;;;9.30;;
62523;SDS011;53689;56.878;60.672;2022-12-18T07:53:39;17.98;;;9.40;;
62523;SDS011;53689;56.878;60.672;2022-12-18T07:56:09;17.33;;;9.18;;
62523;SDS011;53689;56.878;60.672;2022-12-18T07:58:57;17.23;;;10.43;;
62523;SDS011;53689;56.878;60.672;2022-12-18T08:01:25;16.60;;;9.63;;
62523;SDS011;53689;56.878;60.672;2022-12-18T08:03:53;20.80;;;10.55;;
62523;SDS011;53689;56.878;60.672;2022-12-18T08:06:23;17.13;;;10.48;;
62523;SDS011;53689;56.878;60.672;2022-12-18T08:08:51;15.63;;;9.40;;
62523;SDS011;53689;56.878;60.672;2022-12-18T08:11:19;19.25;;;10.45;;
62523;SDS011;53689;56.878;60.672;2022-12-18T08:13:47;12.43;;;8.88;;
62523;SDS011;53689;56.878;60.672;2022-12-18T08:16:15;15.13;;;10.13;;
62523;SDS011;53689;56.878;60.672;2022-12-18T08:18:43;16.73;;;10.10;;
62523;SDS011;53689;56.878;60.672;2022-12-18T08:21:12;17.55;;;10.60;;
62523;SDS011;53689;56.878;60.672;2022-12-18T08:23:42;19.35;;;9.65;;
62523;SDS011;53689;56.878;60.672;2022-12-18T08:26:10;16.88;;;9.48;;
62523;SDS011;53689;56.878;60.672;2022-12-18T08:28:38;15.07;;;9.55;;
62523;SDS011;53689;56.878;60.672;2022-12-18T08:31:06;17.80;;;9.15;;
62523;SDS011;53689;56.878;60.672;2022-12-18T08:33:34;17.20;;;9.57;;
62523;SDS011;53689;56.878;60.672;2022-12-18T08:36:04;17.33;;;10.48;;
62523;SDS011;53689;56.878;60.672;2022-12-18T08:38:32;16.20;;;9.70;;
62523;SDS011;53689;56.878;60.672;2022-12-18T08:41:02;16.05;;;10.77;;
62523;SDS011;53689;56.878;60.672;2022-12-18T08:43:31;15.60;;;9.82;;
62523;SDS011;53689;56.878;60.672;2022-12-18T08:45:58;19.42;;;11.15;;
62523;SDS011;53689;56.878;60.672;2022-12-18T08:48:26;14.40;;;9.65;;
62523;SDS011;53689;56.878;60.672;2022-12-18T08:50:54;17.02;;;10.68;;
62523;SDS011;53689;56.878;60.672;2022-12-18T08:53:24;16.73;;;10.15;;
62523;SDS011;53689;56.878;60.672;2022-12-18T08:56:04;16.05;;;10.93;;
62523;SDS011;53689;56.878;60.672;2022-12-18T08:58:32;19.00;;;11.30;;
62523;SDS011;53689;56.878;60.672;2022-12-18T09:01:00;18.90;;;10.48;;
62523;SDS011;53689;56.878;60.672;2022-12-18T09:03:27;19.27;;;10.90;;
62523;SDS011;53689;56.878;60.672;2022-12-18T09:05:55;14.80;;;9.63;;
62523;SDS011;53689;56.878;60.672;2022-12-18T09:08:23;18.98;;;10.90;;
62523;SDS011;53689;56.878;60.672;2022-12-18T09:10:50;15.48;;;9.90;;
62523;SDS011;53689;56.878;60.672;2022-12-18T09:13:20;19.33;;;10.50;;
62523;SDS011;53689;56.878;60.672;2022-12-18T09:15:47;17.77;;;11.02;;
62523;SDS011;53689;56.878;60.672;2022-12-18T09:18:17;18.63;;;10.20;;
62523;SDS011;53689;56.878;60.672;2022-12-18T09:20:45;19.67;;;9.33;;
62523;SDS011;53689;56.878;60.672;2022-12-18T09:23:13;15.27;;;9.90;;
62523;SDS011;53689;56.878;60.672;2022-12-18T09:25:41;15.93;;;10.75;;
62523;SDS011;53689;56.878;60.672;2022-12-18T09:28:10;13.75;;;8.65;;
62523;SDS011;53689;56.878;60.672;2022-12-18T09:30:41;18.02;;;10.02;;
62523;SDS011;53689;56.878;60.672;2022-12-18T09:33:10;18.02;;;10.07;;
62523;SDS011;53689;56.878;60.672;2022-12-18T09:35:41;12.75;;;9.30;;
62523;SDS011;53689;56.878;60.672;2022-12-18T09:38:11;15.90;;;9.70;;
62523;SDS011;53689;56.878;60.672;2022-12-18T09:40:41;19.30;;;10.73;;
62523;SDS011;53689;56.878;60.672;2022-12-18T09:43:12;15.30;;;9.77;;
62523;SDS011;53689;56.878;60.672;2022-12-18T09:45:45;14.43;;;9.48;;
62523;SDS011;53689;56.878;60.672;2022-12-18T09:48:18;20.13;;;9.98;;
62523;SDS011;53689;56.878;60.672;2022-12-18T09:50:50;15.18;;;9.07;;
62523;SDS011;53689;56.878;60.672;2022-12-18T09:53:19;16.65;;;9.77;;
62523;SDS011;53689;56.878;60.672;2022-12-18T09:55:49;13.77;;;9.63;;
62523;SDS011;53689;56.878;60.672;2022-12-18T09:58:22;17.00;;;9.40;;
62523;SDS011;53689;56.878;60.672;2022-12-18T10:00:57;17.02;;;10.48;;
62523;SDS011;53689;56.878;60.672;2022-12-18T10:03:25;16.52;;;9.63;;
62523;SDS011;53689;56.878;60.672;2022-12-18T10:05:56;15.93;;;9.00;;
62523;SDS011;53689;56.878;60.672;2022-12-18T10:08:33;18.05;;;10.23;;
62523;SDS011;53689;56.878;60.672;2022-12-18T10:11:19;14.65;;;9.57;;
62523;SDS011;53689;56.878;60.672;2022-12-18T10:13:54;14.93;;;9.45;;
62523;SDS011;53689;56.878;60.672;2022-12-18T10:16:32;15.75;;;8.75;;
62523;SDS011;53689;56.878;60.672;2022-12-18T10:19:10;14.82;;;8.65;;
62523;SDS011;53689;56.878;60.672;2022-12-18T10:21:53;18.27;;;10.45;;
62523;SDS011;53689;56.878;60.672;2022-12-18T10:24:30;17.55;;;9.07;;
62523;SDS011;53689;56.878;60.672;2022-12-18T10:27:09;17.15;;;9.23;;
62523;SDS011;53689;56.878;60.672;2022-12-18T10:29:42;15.32;;;9.55;;
62523;SDS011;53689;56.878;60.672;2022-12-18T10:32:14;16.52;;;9.52;;
62523;SDS011;53689;56.878;60.672;2022-12-18T10:34:45;13.93;;;9.30;;
62523;SDS011;53689;56.878;60.672;2022-12-18T10:37:15;15.30;;;9.25;;
62523;SDS011;53689;56.878;60.672;2022-12-18T10:39:44;14.65;;;9.23;;
62523;SDS011;53689;56.878;60.672;2022-12-18T10:42:16;13.80;;;8.90;;
62523;SDS011;53689;56.878;60.672;2022-12-18T10:44:45;15.80;;;8.98;;
62523;SDS011;53689;56.878;60.672;2022-12-18T10:47:15;19.35;;;10.13;;
62523;SDS011;53689;56.878;60.672;2022-12-18T10:49:47;17.27;;;10.02;;
62523;SDS011;53689;56.878;60.672;2022-12-18T10:52:20;13.93;;;8.98;;
62523;SDS011;53689;56.878;60.672;2022-12-18T10:54:50;12.43;;;8.95;;
62523;SDS011;53689;56.878;60.672;2022-12-18T11:00:25;15.10;;;10.10;;
62523;SDS011;53689;56.878;60.672;2022-12-18T11:02:56;13.27;;;9.30;;
62523;SDS011;53689;56.878;60.672;2022-12-18T11:05:25;16.63;;;9.38;;
62523;SDS011;53689;56.878;60.672;2022-12-18T11:07:55;16.55;;;9.57;;
62523;SDS011;53689;56.878;60.672;2022-12-18T11:10:25;18.77;;;10.23;;
62523;SDS011;53689;56.878;60.672;2022-12-18T11:12:55;16.35;;;9.48;;
62523;SDS011;53689;56.878;60.672;2022-12-18T11:15:36;16.73;;;10.93;;
62523;SDS011;53689;56.878;60.672;2022-12-18T11:18:16;15.63;;;9.40;;
62523;SDS011;53689;56.878;60.672;2022-12-18T11:20:50;16.20;;;9.65;;
62523;SDS011;53689;56.878;60.672;2022-12-18T11:23:24;15.20;;;9.52;;
62523;SDS011;53689;56.878;60.672;2022-12-18T11:25:54;16.30;;;9.82;;
62523;SDS011;53689;56.878;60.672;2022-12-18T11:28:27;16.08;;;10.32;;
62523;SDS011;53689;56.878;60.672;2022-12-18T11:31:18;17.63;;;10.25;;
62523;SDS011;53689;56.878;60.672;2022-12-18T11:34:04;13.32;;;8.48;;
62523;SDS011;53689;56.878;60.672;2022-12-18T11:36:55;16.42;;;8.85;;
62523;SDS011;53689;56.878;60.672;2022-12-18T11:39:27;15.20;;;8.13;;
62523;SDS011;53689;56.878;60.672;2022-12-18T11:42:04;18.02;;;9.70;;
62523;SDS011;53689;56.878;60.672;2022-12-18T11:44:45;14.02;;;9.32;;
62523;SDS011;53689;56.878;60.672;2022-12-18T11:47:20;16.38;;;9.80;;
62523;SDS011;53689;56.878;60.672;2022-12-18T11:49:54;16.30;;;9.07;;
62523;SDS011;53689;56.878;60.672;2022-12-18T11:52:26;13.90;;;8.80;;
62523;SDS011;53689;56.878;60.672;2022-12-18T11:54:58;14.75;;;8.70;;
62523;SDS011;53689;56.878;60.672;2022-12-18T11:57:31;14.20;;;9.48;;
62523;SDS011;53689;56.878;60.672;2022-12-18T12:00:09;14.70;;;8.98;;
62523;SDS011;53689;56.878;60.672;2022-12-18T12:02:42;15.82;;;9.38;;
62523;SDS011;53689;56.878;60.672;2022-12-18T12:05:31;14.27;;;9.82;;
62523;SDS011;53689;56.878;60.672;2022-12-18T12:08:09;19.65;;;10.40;;
62523;SDS011;53689;56.878;60.672;2022-12-18T12:10:47;14.80;;;7.95;;
62523;SDS011;53689;56.878;60.672;2022-12-18T12:13:30;18.80;;;10.00;;
62523;SDS011;53689;56.878;60.672;2022-12-18T12:16:12;13.85;;;8.55;;
62523;SDS011;53689;56.878;60.672;2022-12-18T12:18:51;15.65;;;9.15;;
62523;SDS011;53689;56.878;60.672;2022-12-18T12:21:37;14.73;;;8.50;;
62523;SDS011;53689;56.878;60.672;2022-12-18T12:24:12;12.73;;;8.35;;
62523;SDS011;53689;56.878;60.672;2022-12-18T12:26:52;16.83;;;8.82;;
62523;SDS011;53689;56.878;60.672;2022-12-18T12:29:33;17.40;;;9.57;;
62523;SDS011;53689;56.878;60.672;2022-12-18T12:32:13;16.30;;;10.15;;
62523;SDS011;53689;56.878;60.672;2022-12-18T12:34:53;14.10;;;8.80;;
62523;SDS011;53689;56.878;60.672;2022-12-18T12:37:39;14.30;;;7.78;;
62523;SDS011;53689;56.878;60.672;2022-12-18T12:40:17;17.17;;;9.32;;
62523;SDS011;53689;56.878;60.672;2022-12-18T12:43:21;16.33;;;9.60;;
62523;SDS011;53689;56.878;60.672;2022-12-18T12:45:56;15.15;;;8.80;;
62523;SDS011;53689;56.878;60.672;2022-12-18T12:48:35;13.68;;;8.27;;
62523;SDS011;53689;56.878;60.672;2022-12-18T12:51:10;18.15;;;9.20;;
62523;SDS011;53689;56.878;60.672;2022-12-18T12:53:44;15.38;;;9.00;;
62523;SDS011;53689;56.878;60.672;2022-12-18T12:58:44;16.13;;;8.38;;
62523;SDS011;53689;56.878;60.672;2022-12-18T13:01:22;16.08;;;9.70;;
62523;SDS011;53689;56.878;60.672;2022-12-18T13:03:58;15.18;;;9.63;;
62523;SDS011;53689;56.878;60.672;2022-12-18T13:06:37;15.48;;;9.38;;
62523;SDS011;53689;56.878;60.672;2022-12-18T13:09:14;18.17;;;9.65;;
62523;SDS011;53689;56.878;60.672;2022-12-18T13:11:44;15.65;;;9.48;;
62523;SDS011;53689;56.878;60.672;2022-12-18T13:14:20;14.55;;;8.55;;
62523;SDS011;53689;56.878;60.672;2022-12-18T13:16:51;15.60;;;9.13;;
62523;SDS011;53689;56.878;60.672;2022-12-18T13:19:21;14.93;;;8.25;;
62523;SDS011;53689;56.878;60.672;2022-12-18T13:21:54;16.45;;;8.57;;
62523;SDS011;53689;56.878;60.672;2022-12-18T13:24:25;14.23;;;8.85;;
62523;SDS011;53689;56.878;60.672;2022-12-18T13:26:55;14.77;;;8.57;;
62523;SDS011;53689;56.878;60.672;2022-12-18T13:29:41;14.43;;;8.88;;
62523;SDS011;53689;56.878;60.672;2022-12-18T13:32:19;16.38;;;8.88;;
62523;SDS011;53689;56.878;60.672;2022-12-18T13:37:51;14.27;;;8.73;;
62523;SDS011;53689;56.878;60.672;2022-12-18T13:43:26;16.42;;;8.85;;
62523;SDS011;53689;56.878;60.672;2022-12-18T13:48:53;17.80;;;10.13;;
62523;SDS011;53689;56.878;60.672;2022-12-18T13:51:24;17.52;;;9.57;;
62523;SDS011;53689;56.878;60.672;2022-12-18T13:56:22;14.00;;;8.02;;
62523;SDS011;53689;56.878;60.672;2022-12-18T13:59:15;13.38;;;8.85;;
62523;SDS011;53689;56.878;60.672;2022-12-18T14:01:50;16.88;;;9.13;;
62523;SDS011;53689;56.878;60.672;2022-12-18T14:04:22;19.35;;;9.45;;
62523;SDS011;53689;56.878;60.672;2022-12-18T14:06:55;17.40;;;9.23;;
62523;SDS011;53689;56.878;60.672;2022-12-18T14:09:26;15.73;;;9.00;;
62523;SDS011;53689;56.878;60.672;2022-12-18T14:11:58;17.70;;;9.77;;
62523;SDS011;53689;56.878;60.672;2022-12-18T14:14:28;13.53;;;9.00;;
62523;SDS011;53689;56.878;60.672;2022-12-18T14:16:59;13.77;;;8.70;;
62523;SDS011;53689;56.878;60.672;2022-12-18T14:19:33;15.98;;;8.95;;
62523;SDS011;53689;56.878;60.672;2022-12-18T14:22:01;16.52;;;9.73;;
62523;SDS011;53689;56.878;60.672;2022-12-18T14:24:28;15.43;;;8.10;;
62523;SDS011;53689;56.878;60.672;2022-12-18T14:26:56;17.67;;;8.90;;
62523;SDS011;53689;56.878;60.672;2022-12-18T14:29:48;15.52;;;8.63;;
62523;SDS011;53689;56.878;60.672;2022-12-18T14:32:16;13.88;;;8.38;;
62523;SDS011;53689;56.878;60.672;2022-12-18T14:34:45;14.32;;;8.80;;
62523;SDS011;53689;56.878;60.672;2022-12-18T14:37:15;15.52;;;8.60;;
62523;SDS011;53689;56.878;60.672;2022-12-18T14:39:52;15.23;;;8.98;;
62523;SDS011;53689;56.878;60.672;2022-12-18T14:42:21;17.63;;;8.68;;
62523;SDS011;53689;56.878;60.672;2022-12-18T14:44:50;15.45;;;9.52;;
62523;SDS011;53689;56.878;60.672;2022-12-18T14:47:38;14.80;;;9.70;;
62523;SDS011;53689;56.878;60.672;2022-12-18T14:50:12;17.80;;;8.85;;
62523;SDS011;53689;56.878;60.672;2022-12-18T14:52:40;15.98;;;8.98;;
62523;SDS011;53689;56.878;60.672;2022-12-18T14:55:14;15.60;;;8.75;;
62523;SDS011;53689;56.878;60.672;2022-12-18T14:57:43;16.20;;;10.02;;
62523;SDS011;53689;56.878;60.672;2022-12-18T15:00:16;17.25;;;9.52;;
62523;SDS011;53689;56.878;60.672;2022-12-18T15:02:46;15.65;;;9.70;;
62523;SDS011;53689;56.878;60.672;2022-12-18T15:05:18;15.45;;;7.90;;
62523;SDS011;53689;56.878;60.672;2022-12-18T15:07:51;14.73;;;8.60;;
62523;SDS011;53689;56.878;60.672;2022-12-18T15:10:20;18.03;;;9.80;;